Time;durP1;ratioP1;P1;durP2;ratioP2;P2;SDS_P1;SDS_P2;PMS_P1;PMS_P2;Temp;Humidity;BMP_temperature;BMP_pressure;BME280_temperature;BME280_humidity;BME280_pressure;Samples;Min_cycle;Max_cycle;Signal;HPM_P1;HPM_P2
2022/11/01 00:00:56;;;;;;;12.40;4.77;;;;;;;14.19;99.31;100653.25;5094676;28;20400;-85
2022/11/01 00:03:22;;;;;;;13.13;4.50;;;;;;;14.24;99.29;100644.31;5095891;28;20079;-85
2022/11/01 00:05:47;;;;;;;12.27;4.85;;;;;;;14.31;98.46;100645.00;5095606;28;20028;-85
2022/11/01 00:08:13;;;;;;;8.73;4.20;;;;;;;14.42;98.33;100651.47;5095009;28;20086;-85
2022/11/01 00:10:38;;;;;;;10.67;4.50;;;;;;;14.53;97.44;100643.19;5094488;28;20028;-85
2022/11/01 00:13:06;;;;;;;9.67;4.13;;;;;;;14.78;95.58;100639.28;5077562;28;20028;-85
2022/11/01 00:15:31;;;;;;;9.85;4.55;;;;;;;15.06;93.89;100648.47;5077528;28;20040;-85
2022/11/01 00:17:57;;;;;;;8.57;3.87;;;;;;;15.30;92.23;100643.59;5077930;28;20036;-85
2022/11/01 00:20:25;;;;;;;8.23;4.47;;;;;;;15.43;91.60;100640.50;5094028;28;20028;-84
2022/11/01 00:22:50;;;;;;;12.73;4.60;;;;;;;15.54;90.74;100638.72;5077123;28;20067;-85
2022/11/01 00:25:15;;;;;;;10.75;3.90;;;;;;;15.65;90.02;100636.97;5094215;28;20138;-85
2022/11/01 00:27:41;;;;;;;9.47;4.17;;;;;;;15.70;89.53;100638.94;5077337;28;20122;-85
2022/11/01 00:30:07;;;;;;;14.50;4.00;;;;;;;15.79;88.98;100635.50;5094834;28;20032;-85
2022/11/01 00:32:32;;;;;;;7.63;3.53;;;;;;;15.88;88.72;100629.59;5094047;28;20131;-85
2022/11/01 00:34:57;;;;;;;10.90;3.90;;;;;;;15.95;88.60;100635.69;5093741;28;20277;-85
2022/11/01 00:37:23;;;;;;;8.63;3.73;;;;;;;15.95;88.55;100635.69;5093636;28;20051;-84
2022/11/01 00:39:52;;;;;;;10.97;3.77;;;;;;;15.92;88.79;100634.28;5077509;28;20040;-85
2022/11/01 00:42:23;;;;;;;8.93;3.97;;;;;;;15.90;89.05;100632.88;5093450;28;20061;-89
2022/11/01 00:44:59;;;;;;;;;;;;;;;;;;;;;
2022/11/01 00:52:20;;;;;;;;;;;;;;;;;;;;;
2022/11/01 01:12:23;;;;;;;10.77;3.67;;;;;;;16.14;88.52;100606.06;4995137;28;20038;-89
2022/11/01 01:45:58;;;;;;;;;;;;;;;;;;;;;
2022/11/01 01:56:41;;;;;;;9.73;3.65;;;;;;;16.41;89.38;100605.22;4972394;28;20070;-88
2022/11/01 02:41:42;;;;;;;9.77;3.15;;;;;;;16.21;89.84;100609.44;5011361;28;20587;-89
2022/11/01 02:48:32;;;;;;;8.70;3.70;;;;;;;16.19;90.19;100629.94;5012841;28;20044;-89
2022/11/01 02:55:28;;;;;;;6.97;3.25;;;;;;;16.06;90.87;100629.25;5092836;28;20421;-89
2022/11/01 03:01:43;;;;;;;;;;;;;;;;;;;;;
2022/11/01 03:08:11;;;;;;;8.00;3.43;;;;;;;15.85;92.81;100636.41;4995344;28;20513;-89
2022/11/01 03:11:36;;;;;;;8.50;3.97;;;;;;;15.87;92.77;100658.03;4978576;28;20026;-89
2022/11/01 03:21:25;;;;;;;6.53;3.00;;;;;;;15.93;89.70;100676.19;4995809;28;20427;-89
2022/11/01 03:37:32;;;;;;;;;;;;;;;;;;;;;
2022/11/01 03:43:48;;;;;;;5.55;1.60;;;;;;;15.70;77.38;100710.03;4986587;28;20115;-89
2022/11/01 03:46:22;;;;;;;3.80;1.00;;;;;;;15.69;74.56;100701.00;5053644;28;20048;-88
2022/11/01 03:48:52;;;;;;;6.95;1.17;;;;;;;15.70;71.95;100707.31;5053962;28;20041;-89
2022/11/01 03:54:31;;;;;;;3.07;0.97;;;;;;;15.62;71.04;100738.66;5071265;28;20035;-88
2022/11/01 03:56:59;;;;;;;4.65;0.73;;;;;;;15.57;68.68;100730.38;5081613;28;20452;-88
2022/11/01 04:02:48;;;;;;;;;;;;;;;;;;;;;
2022/11/01 04:05:46;;;;;;;3.97;0.80;;;;;;;15.37;67.88;100759.06;5116450;28;20157;-88
2022/11/01 04:08:14;;;;;;;2.17;0.80;;;;;;;15.19;68.00;100754.69;5083556;28;20044;-89
2022/11/01 04:10:47;;;;;;;4.25;0.80;;;;;;;15.19;66.41;100760.16;5097260;28;20027;-89
2022/11/01 04:23:36;;;;;;;;;;;;;;;;;;;;;
2022/11/01 04:42:39;;;;;;;2.00;0.45;;;;;;;14.28;70.10;100845.53;5013789;28;20100;-89
2022/11/01 04:58:50;;;;;;;;;;;;;;;;;;;;;
2022/11/01 05:01:35;;;;;;;3.78;0.60;;;;;;;13.97;70.12;100904.03;5013612;28;20044;-88
2022/11/01 05:07:33;;;;;;;3.10;0.52;;;;;;;13.94;70.03;100915.44;5072707;28;20044;-88
2022/11/01 05:10:05;;;;;;;4.30;0.77;;;;;;;13.87;69.76;100899.16;5096335;28;20475;-88
2022/11/01 05:16:13;;;;;;;3.55;0.60;;;;;;;13.69;71.38;100935.53;5053102;28;20156;-89
2022/11/01 05:22:03;;;;;;;5.70;0.80;;;;;;;13.37;72.30;100916.72;5052160;28;20040;-88
2022/11/01 05:25:04;;;;;;;;;;;;;;;;;;;;;
2022/11/01 05:27:36;;;;;;;2.25;0.43;;;;;;;13.37;72.77;100932.25;5107269;28;20046;-88
2022/11/01 05:33:28;;;;;;;4.35;0.40;;;;;;;13.32;72.33;100932.91;5092150;28;20043;-88
2022/11/01 05:36:19;;;;;;;4.10;0.52;;;;;;;13.33;72.50;100940.00;5075543;28;20075;-88
2022/11/01 05:38:57;;;;;;;;;;;;;;;;;;;;;
2022/11/01 05:41:43;;;;;;;5.47;0.60;;;;;;;13.14;73.92;100941.97;5092896;28;20384;-88
2022/11/01 05:44:24;;;;;;;;;;;;;;;;;;;;;
2022/11/01 05:46:58;;;;;;;2.83;0.60;;;;;;;13.08;73.99;100937.41;5091839;28;20158;-88
2022/11/01 05:50:02;;;;;;;2.28;0.60;;;;;;;13.05;73.46;100930.56;5074912;28;20146;-88
2022/11/01 05:52:53;;;;;;;4.47;1.00;;;;;;;13.05;71.77;100955.06;5074311;28;20039;-88
2022/11/01 05:58:35;;;;;;;8.07;0.90;;;;;;;13.10;68.11;100960.66;5042174;28;20047;-88
2022/11/01 06:01:16;;;;;;;5.53;0.90;;;;;;;13.01;68.42;100982.97;5084822;28;20047;-88
2022/11/01 06:03:47;;;;;;;7.47;0.95;;;;;;;12.97;67.99;100977.16;5095738;28;20098;-88
2022/11/01 06:09:01;;;;;;;6.18;0.82;;;;;;;12.78;68.34;100979.91;5113937;28;20501;-87
2022/11/01 06:11:28;;;;;;;4.68;1.00;;;;;;;12.77;68.54;100967.34;5095693;28;20040;-85
2022/11/01 06:13:57;;;;;;;7.07;0.90;;;;;;;12.73;69.01;100984.38;5096796;28;20444;-86
2022/11/01 06:16:25;;;;;;;6.57;0.65;;;;;;;12.82;69.38;100997.44;5114017;28;20532;-85
2022/11/01 06:18:51;;;;;;;5.93;1.00;;;;;;;12.70;69.93;101001.97;5114197;28;20031;-85
2022/11/01 06:21:21;;;;;;;9.02;1.15;;;;;;;12.64;71.17;100994.72;5114015;28;20030;-85
2022/11/01 06:23:49;;;;;;;5.15;0.88;;;;;;;12.73;71.42;101014.31;5095510;28;20023;-84
2022/11/01 06:26:16;;;;;;;7.20;0.70;;;;;;;12.68;71.74;101008.69;5113874;28;20028;-84
2022/11/01 06:28:41;;;;;;;2.17;0.70;;;;;;;12.67;71.93;101013.31;5095360;28;20453;-85
2022/11/01 06:31:07;;;;;;;5.73;1.23;;;;;;;12.60;72.62;101007.94;5113714;28;20066;-86
2022/11/01 06:33:32;;;;;;;4.67;0.97;;;;;;;12.60;72.98;101021.53;5098005;28;20428;-85
2022/11/01 06:35:59;;;;;;;6.10;0.70;;;;;;;12.69;72.81;101022.09;5099565;28;20472;-85
2022/11/01 06:38:25;;;;;;;4.77;0.70;;;;;;;12.57;73.20;101024.72;5100534;28;20092;-85
2022/11/01 06:40:50;;;;;;;4.30;0.60;;;;;;;12.62;73.29;101040.38;5117763;28;20451;-84
2022/11/01 06:43:16;;;;;;;6.00;0.70;;;;;;;12.58;73.85;101039.19;5099691;28;20028;-84
2022/11/01 06:45:42;;;;;;;3.63;0.70;;;;;;;12.52;74.04;101040.91;5099523;28;20506;-84
2022/11/01 06:48:10;;;;;;;6.93;0.90;;;;;;;12.59;73.39;101032.66;5117768;28;20024;-85
2022/11/01 06:50:45;;;;;;;11.00;0.82;;;;;;;12.59;73.39;101035.38;5117583;28;20110;-87
2022/11/01 06:53:18;;;;;;;13.18;1.10;;;;;;;12.45;73.73;101046.38;5100031;28;20356;-86
2022/11/01 06:56:02;;;;;;;9.87;0.90;;;;;;;12.41;74.00;101057.94;5099111;28;20024;-86
2022/11/01 06:58:44;;;;;;;7.93;0.98;;;;;;;12.38;74.46;101061.13;5082878;28;20032;-86
2022/11/01 07:01:24;;;;;;;;;;;;;;;;;;;;;
2022/11/01 07:03:55;;;;;;;9.93;0.77;;;;;;;12.30;74.98;101062.22;5100719;28;20415;-86
2022/11/01 07:06:29;;;;;;;7.78;0.90;;;;;;;12.21;76.21;101071.69;5116988;28;20063;-86
2022/11/01 07:09:02;;;;;;;6.33;0.80;;;;;;;12.24;75.85;101072.09;5099014;28;20444;-86
2022/11/01 07:11:30;;;;;;;7.82;0.85;;;;;;;12.20;75.67;101076.31;5116004;28;20092;-86
2022/11/01 07:14:03;;;;;;;5.22;0.85;;;;;;;12.22;75.78;101084.25;5098898;28;20428;-86
2022/11/01 07:16:33;;;;;;;6.53;0.77;;;;;;;12.12;75.84;101092.91;5082779;28;20040;-87
2022/11/01 07:19:04;;;;;;;9.60;1.33;;;;;;;12.12;75.84;101087.47;5081618;28;20039;-87
2022/11/01 07:21:35;;;;;;;6.30;0.90;;;;;;;12.11;76.17;101096.69;5099088;28;20031;-86
2022/11/01 07:24:15;;;;;;;9.95;1.08;;;;;;;12.21;75.08;101105.19;5098982;28;20094;-86
2022/11/01 07:26:45;;;;;;;6.68;0.77;;;;;;;12.16;74.80;101107.72;5065299;28;20032;-85
2022/11/01 07:29:11;;;;;;;7.53;0.95;;;;;;;12.11;74.99;101108.38;5082007;28;20031;-86
2022/11/01 07:31:37;;;;;;;6.70;1.10;;;;;;;12.15;74.90;101121.53;5098352;28;20024;-86
2022/11/01 07:34:06;;;;;;;9.48;1.45;;;;;;;12.07;74.87;101125.38;5081366;28;20035;-87
2022/11/01 07:36:49;;;;;;;;;;;;;;;;;;;;;
2022/11/01 07:39:24;;;;;;;10.73;1.35;;;;;;;12.11;74.57;101124.69;5117197;28;20367;-86
2022/11/01 07:41:57;;;;;;;5.53;0.67;;;;;;;12.13;74.19;101129.94;5098421;28;20122;-86
2022/11/01 07:44:22;;;;;;;7.10;1.27;;;;;;;12.26;73.17;101132.56;5115666;28;20089;-86
2022/11/01 07:46:55;;;;;;;10.17;1.17;;;;;;;12.20;73.29;101127.19;5098484;28;20471;-86
2022/11/01 07:49:31;;;;;;;10.02;1.23;;;;;;;12.21;73.59;101139.69;5081955;28;20076;-85
2022/11/01 07:51:57;;;;;;;9.00;1.20;;;;;;;12.22;72.91;101141.38;5097721;28;20066;-91
2022/11/01 07:54:39;;;;;;;8.40;1.43;;;;;;;12.19;73.43;101137.19;5097973;28;20060;-87
2022/11/01 07:57:08;;;;;;;8.93;1.13;;;;;;;12.27;72.35;101152.44;5083732;28;20118;-86
2022/11/01 08:02:44;;;;;;;15.35;1.40;;;;;;;12.24;72.46;101147.44;5116510;28;20055;-87
2022/11/01 08:05:16;;;;;;;13.48;2.08;;;;;;;12.23;72.51;101152.03;5083069;28;20031;-86
2022/11/01 08:07:47;;;;;;;11.40;1.53;;;;;;;12.28;72.46;101165.84;5115447;28;20084;-86
2022/11/01 08:10:21;;;;;;;13.13;1.60;;;;;;;12.26;72.89;101175.25;5065047;28;20114;-86
2022/11/01 08:12:54;;;;;;;13.05;1.63;;;;;;;12.27;72.16;101169.59;5081584;28;20032;-86
2022/11/01 08:15:27;;;;;;;11.35;1.33;;;;;;;12.32;71.64;101168.13;5098706;28;20038;-86
2022/11/01 08:17:57;;;;;;;13.02;1.48;;;;;;;12.31;71.72;101169.97;5081661;28;20050;-86
2022/11/01 08:20:26;;;;;;;12.17;1.50;;;;;;;12.32;72.63;101190.69;5097662;28;20038;-86
2022/11/01 08:23:05;;;;;;;13.30;1.15;;;;;;;12.34;72.25;101172.28;5097437;28;20043;-86
2022/11/01 08:25:38;;;;;;;9.10;1.52;;;;;;;12.29;72.13;101181.09;5098756;28;20031;-86
2022/11/01 08:28:17;;;;;;;12.30;0.95;;;;;;;12.35;70.94;101186.72;5115886;28;20023;-86
2022/11/01 08:30:51;;;;;;;9.52;1.13;;;;;;;12.31;71.89;101182.75;5097742;28;20023;-86
2022/11/01 08:33:26;;;;;;;7.50;1.07;;;;;;;12.37;71.68;101190.91;5097594;28;20046;-86
2022/11/01 08:35:59;;;;;;;11.65;1.40;;;;;;;12.39;71.89;101207.00;5081196;28;20092;-86
2022/11/01 08:38:26;;;;;;;10.02;1.38;;;;;;;12.46;71.36;101199.63;5098513;28;20456;-86
2022/11/01 08:43:58;;;;;;;13.77;1.30;;;;;;;12.46;70.57;101203.19;5115788;28;20038;-86
2022/11/01 08:46:46;;;;;;;12.77;1.60;;;;;;;12.46;70.82;101200.47;5097321;28;20118;-86
2022/11/01 08:49:16;;;;;;;14.95;1.85;;;;;;;12.46;70.57;101186.84;5098008;28;20070;-86
2022/11/01 08:51:47;;;;;;;9.13;1.27;;;;;;;12.51;70.85;101202.53;5096891;28;20038;-87
2022/11/01 08:54:20;;;;;;;10.10;1.47;;;;;;;12.58;70.18;101199.78;5097525;28;20058;-86
2022/11/01 08:56:56;;;;;;;;;;;;;;;;;;;;;
2022/11/01 08:59:46;;;;;;;14.23;1.48;;;;;;;12.57;70.99;101206.25;5116049;28;20038;-86
2022/11/01 09:02:25;;;;;;;9.80;1.33;;;;;;;12.58;70.92;101213.38;5096550;28;20024;-86
2022/11/01 09:05:01;;;;;;;9.93;1.25;;;;;;;12.69;70.79;101211.81;5097197;28;20493;-86
2022/11/01 09:07:50;;;;;;;6.40;1.20;;;;;;;12.71;70.53;101206.97;5096929;28;20040;-85
2022/11/01 09:10:20;;;;;;;12.27;1.65;;;;;;;12.75;70.67;101232.72;5088936;28;20046;-86
2022/11/01 09:12:53;;;;;;;12.35;1.80;;;;;;;12.76;70.71;101229.78;5064121;28;20035;-86
2022/11/01 09:15:29;;;;;;;15.05;1.80;;;;;;;12.76;69.91;101216.16;5115415;28;20031;-86
2022/11/01 09:18:14;;;;;;;10.07;1.52;;;;;;;12.75;70.42;101225.38;5114566;28;20036;-86
2022/11/01 09:20:58;;;;;;;11.53;1.30;;;;;;;12.90;69.84;101232.41;5096985;28;20114;-86
2022/11/01 09:23:24;;;;;;;20.00;2.03;;;;;;;12.91;70.25;101261.31;5096732;28;20035;-87
2022/11/01 09:26:07;;;;;;;15.17;1.50;;;;;;;13.01;69.96;101256.19;5096613;28;20024;-86
2022/11/01 09:28:39;;;;;;;11.35;1.40;;;;;;;12.98;69.78;101232.97;5097104;28;20023;-86
2022/11/01 09:31:07;;;;;;;10.25;1.65;;;;;;;12.95;70.00;101233.41;5114482;28;20038;-86
2022/11/01 09:33:34;;;;;;;15.18;1.65;;;;;;;13.02;70.01;101236.09;5097091;28;20023;-86
2022/11/01 09:36:05;;;;;;;14.80;1.48;;;;;;;13.04;69.84;101241.31;5096323;28;20039;-86
2022/11/01 09:38:49;;;;;;;;;;;;;;;;;;;;;
2022/11/01 09:41:45;;;;;;;;;;;;;;;;;;;;;
2022/11/01 09:44:37;;;;;;;8.63;1.30;;;;;;;13.22;69.95;101273.22;5115166;28;20037;-86
2022/11/01 09:47:29;;;;;;;12.82;1.90;;;;;;;13.23;69.81;101293.94;5081362;28;20052;-86
2022/11/01 09:50:00;;;;;;;9.13;1.27;;;;;;;13.37;69.46;101300.16;5099148;28;20034;-86
2022/11/01 09:52:56;;;;;;;;;;;;;;;;;;;;;
2022/11/01 09:55:53;;;;;;;15.60;1.90;;;;;;;13.42;69.08;101279.34;5114110;28;20031;-87
2022/11/01 09:58:33;;;;;;;19.02;1.55;;;;;;;13.45;69.56;101297.13;5095851;28;20446;-86
2022/11/01 10:01:08;;;;;;;15.23;1.60;;;;;;;13.48;69.16;101307.63;5096050;28;20118;-87
2022/11/01 10:04:19;;;;;;;13.20;1.33;;;;;;;13.57;69.40;101299.97;5096733;28;20065;-86
2022/11/01 10:07:15;;;;;;;12.07;1.23;;;;;;;13.58;68.12;101302.50;5112599;28;20046;-86
2022/11/01 10:09:58;;;;;;;9.27;1.13;;;;;;;13.55;68.85;101300.19;5113464;28;20027;-86
2022/11/01 10:12:45;;;;;;;12.90;1.63;;;;;;;13.68;68.39;101310.13;5095829;28;20070;-86
2022/11/01 10:15:40;;;;;;;14.30;2.13;;;;;;;13.73;68.78;101323.94;5113683;28;20102;-85
2022/11/01 10:18:26;;;;;;;10.70;1.60;;;;;;;13.84;69.24;101336.00;5095911;28;20031;-85
2022/11/01 10:20:52;;;;;;;9.77;0.90;;;;;;;13.90;67.69;101326.91;5113786;28;20111;-86
2022/11/01 10:23:50;;;;;;;12.80;1.65;;;;;;;13.81;68.41;101320.91;5095619;28;20423;-86
2022/11/01 10:26:43;;;;;;;11.75;1.20;;;;;;;13.88;67.76;101314.56;5113898;28;20042;-87
2022/11/01 10:29:38;;;;;;;11.32;1.35;;;;;;;13.93;67.59;101321.00;5095737;28;20487;-88
2022/11/01 10:32:25;;;;;;;8.35;1.10;;;;;;;13.97;68.18;101318.66;5068126;28;20035;-88
2022/11/01 10:35:07;;;;;;;;;;;;;;;;;;;;;
2022/11/01 10:38:08;;;;;;;14.82;2.05;;;;;;;14.12;67.20;101335.47;5114864;28;20038;-88
2022/11/01 10:40:59;;;;;;;7.07;1.17;;;;;;;14.25;66.88;101341.88;5095410;28;20077;-88
2022/11/01 10:43:31;;;;;;;19.70;2.20;;;;;;;14.27;66.51;101318.72;5095803;28;20097;-88
2022/11/01 10:46:02;;;;;;;11.55;1.58;;;;;;;14.42;66.49;101326.53;5095332;28;20490;-88
2022/11/01 10:48:33;;;;;;;16.13;1.80;;;;;;;14.48;65.42;101320.16;5095740;28;20031;-87
2022/11/01 10:51:07;;;;;;;15.73;1.73;;;;;;;14.60;65.46;101311.16;5095336;28;20032;-87
2022/11/01 10:53:43;;;;;;;11.48;1.73;;;;;;;14.97;64.90;101311.94;5095666;28;20027;-88
2022/11/01 10:56:21;;;;;;;11.90;2.45;;;;;;;16.16;61.11;101317.47;5095531;28;20028;-87
2022/11/01 10:58:55;;;;;;;10.52;1.55;;;;;;;17.91;56.39;101301.38;5113796;28;20387;-88
2022/11/01 11:01:28;;;;;;;6.87;1.27;;;;;;;19.04;52.54;101320.00;5114703;28;20032;-88
2022/11/01 11:04:06;;;;;;;;;;;;;;;;;;;;;
2022/11/01 11:06:40;;;;;;;11.55;1.52;;;;;;;20.16;48.77;101323.84;5112307;28;20488;-88
2022/11/01 11:09:27;;;;;;;8.75;1.48;;;;;;;20.89;46.78;101311.97;5113080;28;20380;-88
2022/11/01 11:12:11;;;;;;;;;;;;;;;;;;;;;
2022/11/01 11:17:58;;;;;;;11.38;1.50;;;;;;;21.72;44.21;101307.28;5061027;28;20411;-88
2022/11/01 11:20:31;;;;;;;8.88;1.60;;;;;;;22.62;42.05;101305.56;5098984;28;20118;-87
2022/11/01 11:23:17;;;;;;;;;;;;;;;;;;;;;
2022/11/01 11:29:11;;;;;;;8.43;1.80;;;;;;;23.43;40.12;101294.16;5054156;28;20416;-88
2022/11/01 14:32:10;;;;;;;8.35;1.70;;;;;;;24.98;33.04;101265.31;5071635;28;20122;-90
2022/11/01 15:16:42;;;;;;;4.90;1.23;;;;;;;22.40;36.87;101251.47;5096282;28;20032;-90
2022/11/01 15:40:16;;;;;;;5.85;1.23;;;;;;;19.20;43.54;101265.97;5072463;28;20024;-88
2022/11/01 16:34:33;;;;;;;13.73;1.92;;;;;;;14.50;60.65;101304.38;5118972;27;20048;-87
2022/11/01 16:40:33;;;;;;;8.48;1.25;;;;;;;14.37;61.48;101293.63;5094941;28;20040;-87
2022/11/01 16:46:53;;;;;;;8.90;1.48;;;;;;;14.36;61.72;101309.19;5094775;28;20031;-87
2022/11/01 16:49:27;;;;;;;8.70;1.02;;;;;;;14.42;61.83;101312.03;5059540;28;20086;-86
2022/11/01 16:51:55;;;;;;;6.25;1.13;;;;;;;14.36;62.86;101316.53;5077024;28;20028;-87
2022/11/01 16:54:23;;;;;;;11.48;1.33;;;;;;;14.39;62.80;101307.88;5076930;28;20526;-87
2022/11/01 16:56:55;;;;;;;9.53;1.77;;;;;;;14.38;62.87;101296.13;5068757;28;20040;-87
2022/11/01 16:59:25;;;;;;;10.02;1.35;;;;;;;14.40;62.90;101304.09;5076391;28;20020;-87
2022/11/01 18:28:35;;;;;;;15.63;1.67;;;;;;;13.84;65.70;101304.09;5093693;28;20116;-87
2022/11/01 18:41:26;;;;;;;6.32;1.50;;;;;;;13.65;67.02;101313.31;5096657;28;20073;-87
2022/11/01 19:10:20;;;;;;;10.55;1.63;;;;;;;13.39;68.42;101306.22;5116394;28;20035;-86
2022/11/01 19:12:53;;;;;;;10.20;1.05;;;;;;;13.38;68.92;101312.75;5117300;28;20039;-86
2022/11/01 19:19:02;;;;;;;8.57;1.20;;;;;;;13.44;68.78;101314.56;5094295;28;20040;-87
2022/11/01 19:24:51;;;;;;;11.98;1.42;;;;;;;13.60;68.13;101315.91;5094956;28;20523;-86
2022/11/01 19:27:21;;;;;;;10.20;1.63;;;;;;;13.52;68.70;101327.91;5040944;28;20130;-86
2022/11/01 19:29:58;;;;;;;12.82;1.30;;;;;;;13.60;68.21;101322.19;5094084;28;20036;-86
2022/11/01 19:32:29;;;;;;;8.93;1.67;;;;;;;13.55;68.32;101307.53;5077765;28;20036;-86
2022/11/01 19:34:57;;;;;;;11.07;1.42;;;;;;;13.49;68.72;101301.94;5060626;28;20475;-86
2022/11/01 19:37:30;;;;;;;9.45;1.73;;;;;;;13.49;68.68;101282.88;5077807;28;20032;-86
2022/11/01 19:39:59;;;;;;;10.15;1.60;;;;;;;13.50;68.88;101284.50;5077446;28;20044;-86
2022/11/01 19:42:30;;;;;;;8.88;1.30;;;;;;;13.50;68.80;101280.97;5078508;28;20039;-86
2022/11/01 19:45:11;;;;;;;12.93;2.17;;;;;;;13.53;68.77;101283.22;5094306;28;20032;-86
2022/11/01 19:47:49;;;;;;;10.88;1.45;;;;;;;13.51;68.72;101274.47;5094318;28;20055;-86
2022/11/01 19:50:20;;;;;;;13.07;1.27;;;;;;;13.50;68.85;101275.50;5094810;28;20436;-86
2022/11/01 19:52:50;;;;;;;16.15;1.77;;;;;;;13.46;69.21;101277.00;5103300;28;20040;-86
2022/11/01 19:58:54;;;;;;;14.10;1.80;;;;;;;13.46;69.00;101271.56;5116756;28;20069;-85
2022/11/01 20:01:47;;;;;;;12.77;1.70;;;;;;;13.39;69.22;101273.50;5116918;28;20106;-86
2022/11/01 20:04:27;;;;;;;11.32;1.40;;;;;;;13.42;69.57;101273.91;5098551;28;20023;-86
2022/11/01 20:07:07;;;;;;;12.93;2.08;;;;;;;13.43;69.03;101263.81;5099115;28;20050;-86
2022/11/01 20:09:39;;;;;;;13.20;1.50;;;;;;;13.44;69.33;101268.22;5097968;28;20024;-86
2022/11/01 20:12:07;;;;;;;9.80;1.53;;;;;;;13.39;69.45;101252.56;5093159;28;20070;-86
2022/11/01 20:14:52;;;;;;;12.38;1.77;;;;;;;13.49;69.05;101257.47;5080887;28;20040;-86
2022/11/01 20:17:25;;;;;;;10.70;1.42;;;;;;;13.49;69.45;101263.78;5080966;28;20038;-86
2022/11/01 20:19:52;;;;;;;8.80;1.48;;;;;;;13.46;69.58;101253.34;5093691;28;20036;-86
2022/11/01 20:22:18;;;;;;;9.35;1.50;;;;;;;13.54;69.00;101249.47;5114602;28;20122;-86
2022/11/01 20:24:46;;;;;;;11.17;2.00;;;;;;;13.57;69.15;101259.91;5081118;28;20119;-86
2022/11/01 20:27:23;;;;;;;15.40;1.90;;;;;;;13.72;68.60;101275.91;5098265;28;20089;-85
2022/11/01 20:30:12;;;;;;;8.60;1.80;;;;;;;13.51;69.38;101249.94;5081471;28;20040;-86
2022/11/01 20:32:37;;;;;;;9.60;1.48;;;;;;;13.51;69.56;101245.28;5115357;28;20073;-86
2022/11/01 20:35:05;;;;;;;9.90;1.70;;;;;;;13.51;69.09;101253.47;5115763;28;20063;-86
2022/11/01 20:37:31;;;;;;;10.90;2.15;;;;;;;13.46;69.55;101255.19;5097746;28;20019;-86
2022/11/01 20:40:09;;;;;;;;;;;;;;;;;;;;;
2022/11/01 20:42:45;;;;;;;13.57;1.38;;;;;;;13.50;69.74;101272.78;5115899;28;20042;-86
2022/11/01 20:45:15;;;;;;;21.25;2.88;;;;;;;13.47;69.73;101249.53;5098282;28;20055;-86
2022/11/01 20:47:43;;;;;;;11.20;1.73;;;;;;;13.49;69.65;101266.50;5097507;28;20495;-86
2022/11/01 20:53:33;;;;;;;11.18;1.88;;;;;;;13.50;69.52;101242.78;5072570;28;20151;-86
2022/11/01 20:55:59;;;;;;;12.60;2.10;;;;;;;13.48;69.72;101253.94;5037142;28;20063;-86
2022/11/01 20:58:28;;;;;;;9.33;1.60;;;;;;;13.56;69.61;101260.16;5035552;28;20033;-86
2022/11/01 21:07:28;;;;;;;8.02;1.77;;;;;;;13.62;69.17;101272.88;5030552;28;20044;-86
2022/11/01 21:09:54;;;;;;;8.57;1.60;;;;;;;13.60;69.19;101264.09;5019334;28;20037;-86
2022/11/01 21:12:40;;;;;;;18.52;1.95;;;;;;;13.64;69.10;101274.31;5052741;28;20044;-86
2022/11/01 21:18:42;;;;;;;14.03;1.80;;;;;;;13.59;69.26;101270.59;5035543;28;20044;-87
2022/11/01 21:21:32;;;;;;;11.68;1.52;;;;;;;13.61;69.33;101272.06;5055827;28;20088;-86
2022/11/01 21:24:15;;;;;;;21.77;1.83;;;;;;;13.67;68.80;101268.41;5061823;28;20031;-86
2022/11/01 21:26:53;;;;;;;;;;;;;;;;;;;;;
2022/11/01 21:29:43;;;;;;;11.52;1.10;;;;;;;13.72;69.03;101275.09;5078798;28;20047;-87
2022/11/01 21:32:34;;;;;;;7.30;1.37;;;;;;;13.78;68.48;101275.00;5076572;28;20043;-86
2022/11/01 21:35:18;;;;;;;7.50;1.55;;;;;;;13.77;69.09;101275.22;5076615;28;20043;-87
2022/11/01 21:37:53;;;;;;;9.48;1.35;;;;;;;13.71;69.09;101263.34;5094201;28;20036;-87
